createdAt,value
2022-08-07T00:02:39.630Z,102094.03
2022-08-07T00:07:18.852Z,102096.44
2022-08-07T00:12:20.858Z,102092.88
2022-08-07T00:17:22.646Z,102113.88
2022-08-07T00:22:35.626Z,102104.78
2022-08-07T00:27:52.440Z,102116.13
2022-08-07T00:33:01.269Z,102107.25
2022-08-07T00:38:05.501Z,102104.94
2022-08-07T00:44:01.467Z,102102.34
2022-08-07T00:48:34.097Z,102097.25
2022-08-07T00:53:38.903Z,102094.22
2022-08-07T00:58:52.687Z,102096.75
2022-08-07T01:04:00.350Z,102109.84
2022-08-07T01:09:03.960Z,102103.69
2022-08-07T01:14:07.233Z,102101.88
2022-08-07T01:19:19.238Z,102103.50
2022-08-07T01:24:23.697Z,102099.09
2022-08-07T01:29:31.513Z,102097.28
2022-08-07T01:34:35.691Z,102094.28
2022-08-07T01:39:41.489Z,102086.50
2022-08-07T01:44:48.884Z,102085.13
2022-08-07T01:49:53.620Z,102076.66
2022-08-07T01:54:58.977Z,102102.59
2022-08-07T02:00:13.391Z,102116.59
2022-08-07T02:05:47.475Z,102101.47
2022-08-07T02:10:58.514Z,102108.22
2022-08-07T02:16:04.151Z,102103.31
2022-08-07T02:21:09.360Z,102101.63
2022-08-07T02:26:32.698Z,102093.84
2022-08-07T02:31:38.737Z,102105.22
2022-08-07T02:36:43.754Z,102101.97
2022-08-07T02:41:54.374Z,102096.31
2022-08-07T02:47:00.899Z,102096.72
2022-08-07T02:52:08.868Z,102106.47
2022-08-07T02:57:19.223Z,102093.91
2022-08-07T03:02:24.226Z,102094.72
2022-08-07T03:07:43.248Z,102092.22
2022-08-07T03:12:54.236Z,102099.22
2022-08-07T03:17:58.345Z,102101.22
2022-08-07T03:23:03.056Z,102103.06
2022-08-07T03:28:37.508Z,102094.72
2022-08-07T03:33:40.069Z,102105.31
2022-08-07T03:38:44.640Z,102113.31
2022-08-07T03:43:56.786Z,102114.50
2022-08-07T03:49:02.021Z,102110.84
2022-08-07T03:54:35.171Z,102099.06
2022-08-07T03:59:27.605Z,102123.78
2022-08-07T04:04:32.748Z,102101.69
2022-08-07T04:09:45.126Z,102115.13
2022-08-07T04:14:53.510Z,102109.88
2022-08-07T04:19:58.081Z,102124.03
2022-08-07T04:25:00.977Z,102114.69
2022-08-07T04:30:11.856Z,102123.97
2022-08-07T04:35:16.133Z,102114.44
2022-08-07T04:40:22.722Z,102126.19
2022-08-07T04:46:12.430Z,102130.09
2022-08-07T04:51:49.296Z,102130.59
2022-08-07T04:58:10.237Z,102134.28
2022-08-07T05:03:17.333Z,102130.16
2022-08-07T05:09:01.352Z,102139.06
2022-08-07T05:14:56.445Z,102123.22
2022-08-07T05:19:45.331Z,102131.69
2022-08-07T05:24:55.537Z,102125.53
2022-08-07T05:29:58.825Z,102133.63
2022-08-07T05:35:03.299Z,102124.50
2022-08-07T05:40:18.267Z,102143.06
2022-08-07T05:45:46.093Z,102125.75
2022-08-07T05:50:50.566Z,102140.06
2022-08-07T05:56:03.701Z,102137.44
2022-08-07T06:01:12.011Z,102132.66
2022-08-07T06:06:17.322Z,102137.91
2022-08-07T06:11:20.855Z,102138.06
2022-08-07T06:16:33.277Z,102146.88
2022-08-07T06:22:14.500Z,102134.94
2022-08-07T06:26:58.154Z,102141.69
2022-08-07T06:32:01.601Z,102143.06
2022-08-07T06:37:03.622Z,102134.06
2022-08-07T06:42:32.979Z,102134.69
2022-08-07T06:47:38.663Z,102142.84
2022-08-07T06:52:55.886Z,102143.41
2022-08-07T06:58:04.271Z,102144.50
2022-08-07T07:03:10.818Z,102147.78
2022-08-07T07:08:18.866Z,102142.72
2022-08-07T07:13:58.224Z,102138.25
2022-08-07T07:19:19.007Z,102141.84
2022-08-07T07:24:29.479Z,102138.28
2022-08-07T07:30:07.410Z,102139.16
2022-08-07T07:35:10.005Z,102132.56
2022-08-07T07:40:20.954Z,102127.69
2022-08-07T07:46:40.151Z,102123.06
2022-08-07T07:50:56.314Z,102131.63
2022-08-07T07:56:01.299Z,102117.50
2022-08-07T08:02:02.341Z,102112.16
2022-08-07T08:06:29.515Z,102108.16
2022-08-07T08:11:59.707Z,102110.44
2022-08-07T08:16:58.137Z,102094.59
2022-08-07T08:22:56.051Z,102096.31
2022-08-07T08:28:04.181Z,102093.25
2022-08-07T08:33:10.339Z,102096.69
2022-08-07T08:38:29.528Z,102096.44
2022-08-07T08:43:58.969Z,102110.38
2022-08-07T08:49:46.400Z,102093.69
2022-08-07T08:55:54.303Z,102073.16
2022-08-07T09:01:29.794Z,102072.00
2022-08-07T09:07:57.452Z,102084.66
2022-08-07T09:13:37.171Z,102080.47
2022-08-07T09:19:53.055Z,102085.63
2022-08-07T09:25:21.606Z,102075.44
2022-08-07T09:31:13.417Z,102051.13
2022-08-07T09:36:46.823Z,102067.03
2022-08-07T09:42:33.279Z,102050.84
2022-08-07T09:48:01.198Z,102050.56
2022-08-07T09:53:12.502Z,102038.53
2022-08-07T09:58:57.471Z,102033.38
2022-08-07T10:04:55.072Z,102030.81
2022-08-07T10:11:59.830Z,102033.97
2022-08-07T10:18:00.719Z,102015.91
2022-08-07T10:24:05.621Z,102026.00
2022-08-07T10:29:45.613Z,102025.53
2022-08-07T10:35:10.629Z,102015.63
2022-08-07T10:40:45.105Z,102009.72
2022-08-07T10:46:00.069Z,101978.22
2022-08-07T10:51:39.274Z,101995.84
2022-08-07T10:57:36.983Z,101989.63
2022-08-07T11:03:17.108Z,101982.03
2022-08-07T11:08:54.643Z,101983.44
2022-08-07T11:14:45.310Z,101978.00
2022-08-07T11:20:24.404Z,101961.94
2022-08-07T11:25:42.542Z,101951.22
2022-08-07T11:30:54.436Z,101957.34
2022-08-07T11:36:33.376Z,101945.66
2022-08-07T11:42:03.159Z,101929.75
2022-08-07T11:48:02.109Z,101939.34
2022-08-07T11:53:43.254Z,101925.50
2022-08-07T12:00:11.440Z,101931.53
2022-08-07T12:05:41.375Z,101928.25
2022-08-07T12:11:20.500Z,101897.47
2022-08-07T12:16:35.190Z,101909.72
2022-08-07T12:22:39.415Z,101910.94
2022-08-07T12:28:09.373Z,101906.38
2022-08-07T12:33:28.223Z,101885.91
2022-08-07T12:38:43.092Z,101890.69
2022-08-07T12:44:04.381Z,101888.06
2022-08-07T12:49:39.794Z,101883.69
2022-08-07T12:55:16.503Z,101882.72
2022-08-07T13:00:50.369Z,101861.25
2022-08-07T13:07:01.316Z,101868.97
2022-08-07T13:12:32.908Z,101851.59
2022-08-07T13:18:03.945Z,101859.00
2022-08-07T13:24:00.553Z,101842.41
2022-08-07T13:29:48.445Z,101863.72
2022-08-07T13:35:21.132Z,101850.38
2022-08-07T13:40:42.259Z,101845.00
2022-08-07T13:46:12.188Z,101836.81
2022-08-07T13:51:28.303Z,101820.66
2022-08-07T13:56:51.732Z,101811.34
2022-08-07T14:02:10.611Z,101806.81
2022-08-07T14:07:17.495Z,101816.09
2022-08-07T14:12:41.942Z,101811.53
2022-08-07T14:18:23.396Z,101796.44
2022-08-07T14:23:59.324Z,101800.66
2022-08-07T14:28:57.425Z,101782.81
2022-08-07T14:34:07.295Z,101781.84
2022-08-07T14:39:12.557Z,101766.78
2022-08-07T14:44:34.042Z,101778.19
2022-08-07T14:55:02.713Z,101774.88
2022-08-07T15:00:08.596Z,101765.13
2022-08-07T15:10:58.656Z,101756.44
2022-08-07T15:16:11.450Z,101769.81
2022-08-07T15:21:59.519Z,101767.28
2022-08-07T15:27:03.810Z,101768.19
2022-08-07T15:32:12.448Z,101760.28
2022-08-07T15:42:43.261Z,101752.31
2022-08-07T15:48:12.970Z,101747.00
2022-08-07T15:53:54.823Z,101746.91
2022-08-07T15:59:16.304Z,101746.78
2022-08-07T16:04:21.200Z,101723.81
2022-08-07T16:09:52.286Z,101730.94
2022-08-07T16:15:10.496Z,101734.56
2022-08-07T16:22:04.955Z,101733.72
2022-08-07T16:27:00.071Z,101721.41
2022-08-07T16:32:35.381Z,101725.88
2022-08-07T16:38:05.922Z,101727.72
2022-08-07T16:44:02.785Z,101725.03
2022-08-07T16:50:35.925Z,101729.47
2022-08-07T16:55:55.434Z,101725.09
2022-08-07T17:01:34.465Z,101730.41
2022-08-07T17:07:03.344Z,101724.22
2022-08-07T17:12:34.244Z,101718.91
2022-08-07T17:17:57.580Z,101724.19
2022-08-07T17:23:32.389Z,101728.59
2022-08-07T17:28:52.249Z,101733.91
2022-08-07T17:34:34.879Z,101730.41
2022-08-07T17:40:11.118Z,101737.50
2022-08-07T17:45:32.054Z,101734.91
2022-08-07T17:51:09.566Z,101733.22
2022-08-07T17:56:34.800Z,101730.69
2022-08-07T18:01:56.916Z,101735.13
2022-08-07T18:07:52.105Z,101732.50
2022-08-07T18:13:41.452Z,101735.19
2022-08-07T18:21:08.112Z,101728.16
2022-08-07T18:24:36.176Z,101730.84
2022-08-07T18:30:30.841Z,101737.06
2022-08-07T18:35:55.820Z,101735.28
2022-08-07T18:41:46.322Z,101738.84
2022-08-07T18:47:44.505Z,101736.22
2022-08-07T18:53:36.827Z,101753.00
2022-08-07T18:59:47.041Z,101745.97
2022-08-07T19:05:15.786Z,101765.41
2022-08-07T19:10:31.322Z,101764.53
2022-08-07T19:16:03.381Z,101756.59
2022-08-07T19:21:34.709Z,101768.97
2022-08-07T19:28:29.920Z,101773.41
2022-08-07T19:32:42.291Z,101767.22
2022-08-07T19:37:57.623Z,101765.44
2022-08-07T19:43:08.092Z,101777.78
2022-08-07T19:48:18.976Z,101786.56
2022-08-07T19:54:33.108Z,101784.78
2022-08-07T19:58:53.060Z,101758.28
2022-08-07T20:03:57.688Z,101770.63
2022-08-07T20:09:01.814Z,101787.41
2022-08-07T20:14:07.146Z,101804.16
2022-08-07T20:19:21.410Z,101797.06
2022-08-07T20:29:48.374Z,101808.50
2022-08-07T20:35:27.268Z,101808.50
2022-08-07T20:40:37.489Z,101799.56
2022-08-07T20:46:26.657Z,101798.59
2022-08-07T20:51:12.872Z,101804.72
2022-08-07T20:56:20.153Z,101795.03
2022-08-07T21:01:45.806Z,101798.50
2022-08-07T21:07:03.959Z,101813.50
2022-08-07T21:12:15.074Z,101799.41
2022-08-07T21:18:03.986Z,101807.38
2022-08-07T21:22:54.361Z,101816.97
2022-08-07T21:28:19.026Z,101823.13
2022-08-07T21:33:54.658Z,101810.78
2022-08-07T21:39:47.915Z,101823.84
2022-08-07T21:46:05.063Z,101818.31
2022-08-07T21:51:27.498Z,101808.50
2022-08-07T21:56:51.939Z,101811.25
2022-08-07T22:02:10.123Z,101808.72
2022-08-07T22:07:31.878Z,101815.81
2022-08-07T22:13:01.190Z,101821.88
2022-08-07T22:18:42.041Z,101814.66
2022-08-07T22:24:15.677Z,101809.38
2022-08-07T22:29:49.652Z,101813.81
2022-08-07T22:34:58.318Z,101819.94
2022-08-07T22:40:33.807Z,101826.16
2022-08-07T22:47:02.329Z,101819.88
2022-08-07T22:52:37.759Z,101796.78
2022-08-07T22:58:05.482Z,101822.22
2022-08-07T23:04:07.928Z,101823.19
2022-08-07T23:10:00.868Z,101816.06
2022-08-07T23:16:05.824Z,101826.50
2022-08-07T23:21:30.315Z,101828.97
2022-08-07T23:27:35.719Z,101831.53
2022-08-07T23:34:36.091Z,101835.81
2022-08-07T23:39:40.788Z,101844.69
2022-08-07T23:44:58.056Z,101832.31
2022-08-07T23:50:20.823Z,101834.88
2022-08-07T23:56:11.965Z,101840.00
